SWR725 LSZH-EDDM
Flight info
| Callsign | SWR725 |
|---|---|
| Flight time | N/A |
| Altitude | 20000 |
| Route | DEGES Z6 NUNRI/N0419F190 T103 BETOS BETOS1A |
| Aircraft | A359/H-SDE2E3GHIJ3J4J5LM1ORWXY/LB1D1 |
Departure
| Time | 2026-04-30 14:56 |
|---|---|
| Airport | Zürich Airport (LSZH) |
Arrival
| Time | N/A |
|---|---|
| Airport | Munich Airport (EDDM) |
| Time | Latitude | Longitude | Altitude | Speed | Heading |
|---|---|---|---|---|---|
| 2026-04-30 14:28 | 47.46193 | 8.55379 | 1413 ft | 0 kts | 186° |
| 2026-04-30 14:44 | 47.46205 | 8.55381 | 1405 ft | 4 kts | 186° |
| 2026-04-30 14:45 | 47.46232 | 8.55385 | 1407 ft | 4 kts | 186° |
| 2026-04-30 14:45 | 47.46252 | 8.55389 | 1410 ft | 4 kts | 212° |
| 2026-04-30 14:45 | 47.46262 | 8.55414 | 1413 ft | 3 kts | 276° |
| 2026-04-30 14:45 | 47.46260 | 8.55452 | 1413 ft | 4 kts | 276° |
| 2026-04-30 14:46 | 47.46258 | 8.55474 | 1410 ft | 0 kts | 276° |
| 2026-04-30 14:49 | 47.46259 | 8.55459 | 1411 ft | 5 kts | 276° |
| 2026-04-30 14:50 | 47.46271 | 8.55287 | 1407 ft | 12 kts | 276° |
| 2026-04-30 14:50 | 47.46280 | 8.55151 | 1407 ft | 15 kts | 276° |
| 2026-04-30 14:51 | 47.46294 | 8.54856 | 1411 ft | 15 kts | 254° |
| 2026-04-30 14:51 | 47.46210 | 8.54814 | 1410 ft | 15 kts | 165° |
| 2026-04-30 14:51 | 47.46037 | 8.54931 | 1411 ft | 15 kts | 153° |
| 2026-04-30 14:52 | 47.45986 | 8.54968 | 1413 ft | 0 kts | 154° |
| 2026-04-30 14:52 | 47.45942 | 8.54962 | 1412 ft | 9 kts | 210° |
| 2026-04-30 14:52 | 47.45923 | 8.54887 | 1412 ft | 6 kts | 264° |
| 2026-04-30 14:53 | 47.45932 | 8.54694 | 1412 ft | 12 kts | 275° |
| 2026-04-30 14:53 | 47.45943 | 8.54556 | 1406 ft | 15 kts | 277° |
| 2026-04-30 14:54 | 47.45970 | 8.54191 | 1409 ft | 21 kts | 276° |
| 2026-04-30 14:54 | 47.45991 | 8.53918 | 1406 ft | 8 kts | 276° |
| 2026-04-30 14:55 | 47.45903 | 8.53793 | 1413 ft | 11 kts | 151° |
| 2026-04-30 14:55 | 47.45885 | 8.53849 | 1412 ft | 0 kts | 100° |
| 2026-04-30 14:56 | 47.45852 | 8.54287 | 1406 ft | 88 kts | 95° |
| 2026-04-30 14:56 | 47.45608 | 8.57403 | 2389 ft | 178 kts | 92° |
| 2026-04-30 14:57 | 47.45481 | 8.59301 | 3214 ft | 195 kts | 92° |
| 2026-04-30 14:57 | 47.45281 | 8.63814 | 4066 ft | 240 kts | 84° |
| 2026-04-30 14:58 | 47.45732 | 8.68864 | 4925 ft | 250 kts | 80° |
| 2026-04-30 14:58 | 47.45987 | 8.71367 | 4972 ft | 248 kts | 81° |
| 2026-04-30 14:58 | 47.46482 | 8.76445 | 5462 ft | 259 kts | 83° |
| 2026-04-30 14:59 | 47.46939 | 8.81879 | 7346 ft | 270 kts | 80° |
| 2026-04-30 15:00 | 47.48084 | 8.90164 | 10419 ft | 278 kts | 78° |
| 2026-04-30 15:00 | 47.48858 | 8.95411 | 11346 ft | 315 kts | 77° |
| 2026-04-30 15:01 | 47.49833 | 9.02108 | 12607 ft | 342 kts | 77° |
| 2026-04-30 15:01 | 47.50328 | 9.05559 | 13395 ft | 348 kts | 77° |
| 2026-04-30 15:01 | 47.51326 | 9.12592 | 15158 ft | 354 kts | 77° |
| 2026-04-30 15:02 | 47.51837 | 9.16196 | 15840 ft | 361 kts | 77° |
| 2026-04-30 15:02 | 47.52351 | 9.19836 | 16735 ft | 361 kts | 77° |
| 2026-04-30 15:03 | 47.53929 | 9.31026 | 18900 ft | 378 kts | 76° |
| 2026-04-30 15:03 | 47.55007 | 9.38728 | 20032 ft | 383 kts | 76° |
| 2026-04-30 15:04 | 47.56105 | 9.46607 | 20235 ft | 400 kts | 76° |
| 2026-04-30 15:04 | 47.57785 | 9.58762 | 20238 ft | 403 kts | 76° |
| 2026-04-30 15:05 | 47.58468 | 9.71232 | 20239 ft | 407 kts | 89° |
| 2026-04-30 15:06 | 47.58179 | 9.79567 | 20240 ft | 407 kts | 91° |
| 2026-04-30 15:06 | 47.57796 | 9.87954 | 20237 ft | 407 kts | 91° |
| 2026-04-30 15:07 | 47.57422 | 9.96335 | 20241 ft | 407 kts | 91° |
| 2026-04-30 15:07 | 47.57063 | 10.04715 | 20241 ft | 407 kts | 91° |
| 2026-04-30 15:08 | 47.56708 | 10.13037 | 20243 ft | 405 kts | 90° |
| 2026-04-30 15:08 | 47.56166 | 10.25512 | 20244 ft | 404 kts | 90° |
| 2026-04-30 15:09 | 47.55802 | 10.33772 | 20245 ft | 404 kts | 90° |
| 2026-04-30 15:09 | 47.55427 | 10.42085 | 20248 ft | 404 kts | 90° |
| 2026-04-30 15:10 | 47.55069 | 10.50366 | 20266 ft | 403 kts | 87° |
| 2026-04-30 15:11 | 47.58661 | 10.65476 | 20254 ft | 392 kts | 58° |
| 2026-04-30 15:11 | 47.61509 | 10.72386 | 20252 ft | 392 kts | 56° |
| 2026-04-30 15:12 | 47.65755 | 10.82704 | 20263 ft | 392 kts | 57° |
| 2026-04-30 15:13 | 47.68852 | 10.89287 | 20264 ft | 390 kts | 45° |
| 2026-04-30 15:14 | 47.77097 | 10.99683 | 20291 ft | 389 kts | 38° |
| 2026-04-30 15:14 | 47.83499 | 11.07182 | 18982 ft | 392 kts | 38° |
| 2026-04-30 15:16 | 47.94000 | 11.19670 | 15294 ft | 379 kts | 39° |
| 2026-04-30 15:17 | 48.02096 | 11.29343 | 12398 ft | 368 kts | 39° |
| 2026-04-30 15:18 | 48.10406 | 11.42443 | 10329 ft | 311 kts | 56° |
| 2026-04-30 15:19 | 48.13427 | 11.49969 | 10012 ft | 270 kts | 39° |